createdAt,value
2022-12-25T00:02:27.084Z,6.56
2022-12-25T00:04:57.838Z,6.57
2022-12-25T00:07:28.707Z,6.56
2022-12-25T00:09:59.547Z,6.54
2022-12-25T00:12:30.175Z,6.53
2022-12-25T00:15:00.917Z,6.55
2022-12-25T00:17:31.679Z,6.57
2022-12-25T00:20:02.471Z,6.59
2022-12-25T00:22:33.528Z,6.66
2022-12-25T00:25:04.382Z,6.73
2022-12-25T00:27:37.725Z,6.76
2022-12-25T00:30:10.818Z,6.76
2022-12-25T00:32:42.166Z,6.77
2022-12-25T00:35:13.310Z,6.76
2022-12-25T00:37:44.287Z,6.74
2022-12-25T00:40:16.449Z,6.75
2022-12-25T00:42:49.685Z,6.76
2022-12-25T00:45:20.470Z,6.76
2022-12-25T00:47:51.345Z,6.75
2022-12-25T00:50:22.235Z,6.72
2022-12-25T00:52:52.948Z,6.72
2022-12-25T00:55:23.691Z,6.73
2022-12-25T00:57:54.523Z,6.73
2022-12-25T01:00:25.388Z,6.72
2022-12-25T01:02:56.101Z,6.73
2022-12-25T01:05:27.381Z,6.74
2022-12-25T01:07:58.122Z,6.73
2022-12-25T01:10:28.781Z,6.68
2022-12-25T01:12:59.511Z,6.62
2022-12-25T01:15:30.085Z,6.58
2022-12-25T01:18:07.313Z,6.54
2022-12-25T01:20:38.681Z,6.49
2022-12-25T01:23:10.070Z,6.45
2022-12-25T01:25:40.688Z,6.42
2022-12-25T01:28:11.360Z,6.40
2022-12-25T01:30:48.542Z,6.35
2022-12-25T01:33:19.394Z,6.31
2022-12-25T01:35:50.248Z,6.29
2022-12-25T01:38:22.285Z,6.27
2022-12-25T01:40:53.034Z,6.23
2022-12-25T01:43:29.080Z,6.14
2022-12-25T01:46:00.442Z,6.05
2022-12-25T01:48:35.052Z,5.98
2022-12-25T01:51:13.773Z,5.93
2022-12-25T01:53:44.518Z,5.89
2022-12-25T01:56:15.164Z,5.82
2022-12-25T01:58:45.996Z,5.77
2022-12-25T02:01:16.920Z,5.71
2022-12-25T02:03:47.831Z,5.64
2022-12-25T02:06:18.680Z,5.61
2022-12-25T02:08:50.531Z,5.57
2022-12-25T02:11:35.095Z,5.51
2022-12-25T02:14:06.208Z,5.48
2022-12-25T02:16:58.254Z,5.47
2022-12-25T02:19:47.127Z,5.44
2022-12-25T02:22:29.642Z,5.40
2022-12-25T02:25:12.232Z,5.35
2022-12-25T02:28:06.738Z,5.34
2022-12-25T02:30:41.950Z,5.29
2022-12-25T02:33:35.139Z,5.25
2022-12-25T02:36:11.434Z,5.24
2022-12-25T02:38:59.671Z,5.23
2022-12-25T02:41:35.559Z,5.23
2022-12-25T02:44:30.409Z,5.22
2022-12-25T02:47:19.909Z,5.19
2022-12-25T02:50:11.009Z,5.14
2022-12-25T02:53:01.003Z,5.09
2022-12-25T02:55:57.385Z,5.08
2022-12-25T02:58:47.254Z,5.00
2022-12-25T03:01:38.802Z,4.96
2022-12-25T03:04:31.246Z,4.99
2022-12-25T03:07:08.960Z,5.03
2022-12-25T03:10:00.244Z,5.08
2022-12-25T03:12:38.641Z,5.13
2022-12-25T03:15:30.572Z,5.15
2022-12-25T03:18:06.355Z,5.16
2022-12-25T03:20:55.992Z,5.15
2022-12-25T03:23:48.328Z,5.14
2022-12-25T03:26:36.656Z,5.14
2022-12-25T03:29:07.543Z,5.15
2022-12-25T03:31:48.117Z,5.15
2022-12-25T03:34:49.791Z,5.16
2022-12-25T03:37:52.465Z,5.14
2022-12-25T03:41:04.896Z,5.05
2022-12-25T03:44:05.510Z,5.00
2022-12-25T03:47:02.322Z,4.97
2022-12-25T03:49:57.560Z,4.96
2022-12-25T03:52:49.091Z,4.94
2022-12-25T03:55:54.565Z,4.96
2022-12-25T03:58:45.742Z,4.97
2022-12-25T04:01:32.646Z,4.97
2022-12-25T04:04:21.261Z,4.93
2022-12-25T04:07:09.511Z,4.93
2022-12-25T04:09:58.051Z,4.94
2022-12-25T04:12:46.091Z,4.91
2022-12-25T04:15:34.908Z,4.89
2022-12-25T04:18:23.986Z,4.84
2022-12-25T04:21:12.524Z,4.80
2022-12-25T04:24:00.925Z,4.75
2022-12-25T04:26:49.597Z,4.72
2022-12-25T04:29:38.111Z,4.68
2022-12-25T04:32:26.516Z,4.64
2022-12-25T04:35:14.746Z,4.56
2022-12-25T04:37:45.598Z,4.52
2022-12-25T04:40:16.362Z,4.55
2022-12-25T04:42:47.211Z,4.59
2022-12-25T04:45:17.971Z,4.62
2022-12-25T04:47:48.696Z,4.66
2022-12-25T04:50:19.524Z,4.69
2022-12-25T04:52:50.246Z,4.76
2022-12-25T04:55:21.329Z,4.83
2022-12-25T04:57:52.102Z,4.87
2022-12-25T05:00:23.462Z,4.85
2022-12-25T05:02:54.391Z,4.84
2022-12-25T05:05:25.292Z,4.80
2022-12-25T05:07:56.006Z,4.73
2022-12-25T05:10:26.931Z,4.67
2022-12-25T05:12:57.665Z,4.63
2022-12-25T05:15:28.688Z,4.59
2022-12-25T05:17:59.452Z,4.56
2022-12-25T05:20:33.430Z,4.55
2022-12-25T05:23:10.286Z,4.55
2022-12-25T05:25:42.761Z,4.55
2022-12-25T05:28:13.641Z,4.49
2022-12-25T05:30:44.501Z,4.41
2022-12-25T05:33:15.208Z,4.34
2022-12-25T05:35:45.943Z,4.27
2022-12-25T05:38:16.638Z,4.23
2022-12-25T05:40:47.423Z,4.18
2022-12-25T05:43:19.442Z,4.12
2022-12-25T05:45:50.086Z,4.04
2022-12-25T05:48:20.879Z,3.98
2022-12-25T05:50:51.669Z,3.96
2022-12-25T05:53:22.409Z,3.97
2022-12-25T05:55:53.718Z,3.96
2022-12-25T05:58:24.400Z,3.93
2022-12-25T06:00:55.160Z,3.92
2022-12-25T06:03:26.218Z,3.90
2022-12-25T06:05:57.502Z,3.89
2022-12-25T06:08:28.186Z,3.81
2022-12-25T06:10:58.964Z,3.72
2022-12-25T06:13:29.563Z,3.67
2022-12-25T06:16:00.385Z,3.65
2022-12-25T06:18:31.238Z,3.62
2022-12-25T06:21:01.975Z,3.58
2022-12-25T06:23:32.678Z,3.64
2022-12-25T06:26:06.298Z,3.64
2022-12-25T06:28:37.312Z,3.62
2022-12-25T06:31:11.092Z,3.58
2022-12-25T06:33:42.000Z,3.52
2022-12-25T06:36:15.952Z,3.43
2022-12-25T06:38:47.459Z,3.39
2022-12-25T06:41:20.554Z,3.39
2022-12-25T06:43:53.163Z,3.33
2022-12-25T06:46:25.034Z,3.31
2022-12-25T06:48:56.297Z,3.30
2022-12-25T06:51:29.230Z,3.30
2022-12-25T06:54:03.664Z,3.29
2022-12-25T06:56:35.224Z,3.26
2022-12-25T06:59:07.520Z,3.20
2022-12-25T07:01:40.811Z,3.11
2022-12-25T07:04:16.892Z,3.05
2022-12-25T07:06:47.791Z,3.05
2022-12-25T07:09:18.823Z,3.00
2022-12-25T07:11:49.481Z,3.03
2022-12-25T07:14:24.148Z,3.09
2022-12-25T07:16:55.592Z,3.15
2022-12-25T07:19:26.486Z,3.22
2022-12-25T07:21:57.733Z,3.26
2022-12-25T07:24:28.479Z,3.29
2022-12-25T07:26:59.116Z,3.23
2022-12-25T07:29:30.015Z,3.32
2022-12-25T07:32:01.238Z,3.29
2022-12-25T07:34:31.958Z,3.25
2022-12-25T07:37:02.895Z,3.28
2022-12-25T07:39:34.540Z,3.31
2022-12-25T07:42:05.242Z,3.31
2022-12-25T07:44:36.319Z,3.34
2022-12-25T07:47:07.022Z,3.33
2022-12-25T07:49:38.802Z,3.41
2022-12-25T07:52:09.465Z,3.53
2022-12-25T07:54:40.276Z,3.66
2022-12-25T07:57:11.554Z,3.81
2022-12-25T07:59:42.452Z,3.95
2022-12-25T08:02:14.325Z,4.05
2022-12-25T08:04:45.886Z,4.18
2022-12-25T08:07:16.959Z,4.30
2022-12-25T08:09:47.885Z,4.40
2022-12-25T08:12:18.734Z,4.48
2022-12-25T08:14:49.508Z,4.54
2022-12-25T08:17:20.237Z,4.65
2022-12-25T08:19:51.110Z,4.80
2022-12-25T08:22:22.187Z,4.89
2022-12-25T08:24:53.009Z,5.03
2022-12-25T08:27:23.712Z,5.15
2022-12-25T08:29:54.425Z,5.32
2022-12-25T08:32:25.593Z,5.44
2022-12-25T08:34:56.301Z,5.45
2022-12-25T08:37:27.095Z,5.39
2022-12-25T08:39:57.998Z,5.33
2022-12-25T08:42:29.966Z,5.31
2022-12-25T08:45:03.105Z,5.31
2022-12-25T08:47:35.572Z,5.29
2022-12-25T08:50:12.215Z,5.24
2022-12-25T08:52:43.150Z,5.16
2022-12-25T08:55:13.985Z,5.06
2022-12-25T08:57:44.920Z,5.08
2022-12-25T09:00:17.905Z,5.30
2022-12-25T09:02:47.180Z,5.66
2022-12-25T09:05:18.029Z,5.99
2022-12-25T09:07:48.733Z,6.31
2022-12-25T09:10:19.492Z,6.61
2022-12-25T09:12:50.441Z,6.88
2022-12-25T09:15:21.630Z,7.12
2022-12-25T09:17:52.471Z,7.25
2022-12-25T09:20:23.191Z,7.38
2022-12-25T09:22:53.944Z,7.51
2022-12-25T09:25:24.605Z,7.66
2022-12-25T09:27:56.283Z,7.78
2022-12-25T09:30:27.120Z,7.87
2022-12-25T09:32:57.902Z,7.83
2022-12-25T09:35:28.699Z,7.79
2022-12-25T09:37:59.456Z,7.81
2022-12-25T09:40:33.451Z,7.88
2022-12-25T09:43:05.019Z,7.96
2022-12-25T09:45:40.062Z,8.10
2022-12-25T09:48:16.020Z,8.23
2022-12-25T09:50:50.331Z,8.35
2022-12-25T09:53:26.162Z,8.45
2022-12-25T09:56:08.150Z,8.54
2022-12-25T09:58:38.892Z,8.61
2022-12-25T10:01:17.654Z,8.68
2022-12-25T10:04:12.843Z,8.77
2022-12-25T10:06:51.752Z,8.88
2022-12-25T10:09:42.697Z,8.98
2022-12-25T10:12:33.782Z,9.07
2022-12-25T10:15:27.237Z,9.11
2022-12-25T10:18:22.544Z,9.09
2022-12-25T10:20:55.279Z,9.06
2022-12-25T10:23:27.273Z,9.04
2022-12-25T10:25:58.150Z,9.05
2022-12-25T10:28:35.405Z,9.12
2022-12-25T10:31:19.526Z,9.13
2022-12-25T10:33:51.961Z,9.00
2022-12-25T10:36:24.565Z,8.87
2022-12-25T10:38:56.258Z,8.78
2022-12-25T10:41:50.765Z,8.76
2022-12-25T10:44:25.327Z,8.77
2022-12-25T10:46:58.198Z,8.81
2022-12-25T10:49:34.474Z,8.78
2022-12-25T10:52:05.832Z,8.78
2022-12-25T10:54:37.875Z,8.70
2022-12-25T10:57:17.411Z,8.57
2022-12-25T10:59:49.616Z,8.46
2022-12-25T11:02:25.778Z,8.40
2022-12-25T11:05:03.661Z,8.51
2022-12-25T11:07:54.417Z,8.63
2022-12-25T11:10:25.272Z,8.71
2022-12-25T11:12:56.388Z,8.66
2022-12-25T11:15:37.965Z,8.65
2022-12-25T11:18:22.073Z,8.73
2022-12-25T11:20:54.338Z,8.82
2022-12-25T11:23:27.326Z,8.89
2022-12-25T11:26:03.061Z,8.99
2022-12-25T11:28:36.957Z,9.09
2022-12-25T11:31:10.573Z,9.17
2022-12-25T11:33:47.178Z,9.15
2022-12-25T11:36:26.441Z,9.11
2022-12-25T11:38:58.193Z,9.07
2022-12-25T11:41:34.756Z,9.03
2022-12-25T11:44:08.947Z,9.00
2022-12-25T11:46:43.995Z,8.96
2022-12-25T11:49:19.795Z,8.92
2022-12-25T11:51:55.176Z,8.90
2022-12-25T11:54:31.532Z,8.88
2022-12-25T11:57:05.706Z,8.87
2022-12-25T11:59:51.196Z,8.85
2022-12-25T12:02:29.862Z,8.83
2022-12-25T12:05:03.716Z,8.82
2022-12-25T12:07:37.200Z,8.80
2022-12-25T12:10:15.972Z,8.79
2022-12-25T12:12:57.688Z,8.78
2022-12-25T12:15:36.951Z,8.78
2022-12-25T12:18:23.343Z,8.78
2022-12-25T12:21:10.849Z,8.79
2022-12-25T12:23:52.248Z,8.79
2022-12-25T12:26:25.185Z,8.80
2022-12-25T12:28:59.072Z,8.81
2022-12-25T12:31:41.195Z,8.83
2022-12-25T12:34:25.819Z,8.85
2022-12-25T12:37:01.777Z,8.88
2022-12-25T12:39:37.621Z,8.89
2022-12-25T12:42:18.413Z,8.91
2022-12-25T12:44:50.731Z,8.93
2022-12-25T12:47:38.596Z,8.94
2022-12-25T12:50:24.612Z,8.95
2022-12-25T12:52:55.411Z,8.98
2022-12-25T12:55:33.851Z,8.98
2022-12-25T12:58:07.170Z,9.00
2022-12-25T13:00:50.904Z,9.02
2022-12-25T13:03:46.258Z,9.02
2022-12-25T13:06:22.021Z,8.99
2022-12-25T13:09:06.261Z,8.98
2022-12-25T13:11:41.790Z,8.95
2022-12-25T13:14:19.632Z,8.91
2022-12-25T13:16:52.850Z,8.88
2022-12-25T13:19:25.876Z,8.85
2022-12-25T13:21:58.913Z,8.82
2022-12-25T13:24:30.933Z,8.80
2022-12-25T13:27:02.111Z,8.78
2022-12-25T13:29:34.558Z,8.74
2022-12-25T13:32:07.718Z,8.72
2022-12-25T13:34:40.437Z,8.71
2022-12-25T13:37:15.274Z,8.69
2022-12-25T13:39:52.603Z,8.67
2022-12-25T13:42:26.653Z,8.65
2022-12-25T13:44:59.743Z,8.63
2022-12-25T13:47:35.123Z,8.62
2022-12-25T13:50:21.814Z,8.59
2022-12-25T13:52:53.670Z,8.56
2022-12-25T13:55:25.818Z,8.54
2022-12-25T13:58:00.242Z,8.52
2022-12-25T14:00:38.296Z,8.50
2022-12-25T14:03:18.131Z,8.47
2022-12-25T14:05:58.962Z,8.46
2022-12-25T14:08:32.105Z,8.44
2022-12-25T14:11:05.259Z,8.44
2022-12-25T14:13:39.768Z,8.44
2022-12-25T14:16:11.975Z,8.43
2022-12-25T14:18:53.846Z,8.41
2022-12-25T14:21:34.136Z,8.41
2022-12-25T14:24:05.768Z,8.41
2022-12-25T14:26:36.917Z,8.39
2022-12-25T14:29:18.121Z,8.39
2022-12-25T14:31:50.068Z,8.38
2022-12-25T14:34:24.341Z,8.37
2022-12-25T14:36:56.290Z,8.37
2022-12-25T14:39:33.338Z,8.37
2022-12-25T14:42:12.601Z,8.36
2022-12-25T14:44:43.696Z,8.35
2022-12-25T14:47:20.323Z,8.36
2022-12-25T14:49:51.054Z,8.35
2022-12-25T14:52:26.473Z,8.35
2022-12-25T14:55:01.162Z,8.35
2022-12-25T14:57:34.964Z,8.35
2022-12-25T15:00:21.271Z,8.35
2022-12-25T15:02:54.769Z,8.35
2022-12-25T15:05:35.282Z,8.34
2022-12-25T15:08:20.372Z,8.34
2022-12-25T15:11:01.834Z,8.34
2022-12-25T15:13:34.430Z,8.35
2022-12-25T15:16:13.148Z,8.35
2022-12-25T15:18:46.956Z,8.35
2022-12-25T15:21:23.248Z,8.35
2022-12-25T15:23:55.340Z,8.36
2022-12-25T15:26:26.956Z,8.36
2022-12-25T15:28:57.799Z,8.35
2022-12-25T15:31:30.207Z,8.36
2022-12-25T15:34:02.591Z,8.36
2022-12-25T15:36:33.952Z,8.35
2022-12-25T15:39:04.874Z,8.35
2022-12-25T15:41:56.787Z,8.35
2022-12-25T15:44:27.699Z,8.36
2022-12-25T15:46:58.647Z,8.37
2022-12-25T15:49:29.281Z,8.37
2022-12-25T15:51:59.992Z,8.37
2022-12-25T15:54:30.707Z,8.37
2022-12-25T15:57:04.312Z,8.39
2022-12-25T15:59:35.404Z,8.39
2022-12-25T16:02:14.424Z,8.39
2022-12-25T16:04:45.302Z,8.41
2022-12-25T16:07:18.962Z,8.41
2022-12-25T16:09:49.724Z,8.42
2022-12-25T16:12:20.974Z,8.43
2022-12-25T16:14:51.652Z,8.44
2022-12-25T16:17:22.470Z,8.45
2022-12-25T16:19:53.137Z,8.46
2022-12-25T16:22:26.576Z,8.46
2022-12-25T16:24:57.563Z,8.46
2022-12-25T16:27:28.252Z,8.48
2022-12-25T16:29:58.986Z,8.49
2022-12-25T16:32:30.344Z,8.50
2022-12-25T16:35:01.159Z,8.52
2022-12-25T16:37:32.112Z,8.53
2022-12-25T16:40:03.208Z,8.53
2022-12-25T16:42:34.721Z,8.54
2022-12-25T16:45:06.047Z,8.55
2022-12-25T16:47:36.869Z,8.56
2022-12-25T16:50:09.650Z,8.57
2022-12-25T16:52:38.654Z,8.58
2022-12-25T16:55:10.549Z,8.58
2022-12-25T16:57:41.306Z,8.58
2022-12-25T17:00:14.375Z,8.58
2022-12-25T17:02:45.436Z,8.58
2022-12-25T17:05:16.535Z,8.58
2022-12-25T17:07:47.322Z,8.57
2022-12-25T17:10:18.381Z,8.57
2022-12-25T17:12:49.141Z,8.56
2022-12-25T17:15:20.129Z,8.54
2022-12-25T17:17:50.896Z,8.53
2022-12-25T17:20:21.727Z,8.52
2022-12-25T17:22:52.760Z,8.51
2022-12-25T17:25:23.405Z,8.51
2022-12-25T17:27:54.118Z,8.50
2022-12-25T17:30:24.841Z,8.50
2022-12-25T17:32:55.945Z,8.50
2022-12-25T17:35:26.605Z,8.51
2022-12-25T17:37:57.270Z,8.51
2022-12-25T17:40:29.345Z,8.52
2022-12-25T17:43:00.145Z,8.52
2022-12-25T17:45:30.846Z,8.53
2022-12-25T17:48:01.477Z,8.55
2022-12-25T17:50:37.392Z,8.56
2022-12-25T17:53:11.961Z,8.59
2022-12-25T17:55:43.929Z,8.60
2022-12-25T17:58:14.519Z,8.62
2022-12-25T18:00:45.242Z,8.64
2022-12-25T18:03:16.030Z,8.66
2022-12-25T18:05:46.991Z,8.67
2022-12-25T18:08:20.423Z,8.68
2022-12-25T18:10:52.173Z,8.69
2022-12-25T18:13:22.864Z,8.71
2022-12-25T18:15:53.524Z,8.73
2022-12-25T18:18:25.186Z,8.74
2022-12-25T18:20:56.762Z,8.76
2022-12-25T18:23:27.794Z,8.77
2022-12-25T18:26:01.563Z,8.77
2022-12-25T18:28:32.307Z,8.78
2022-12-25T18:31:03.274Z,8.79
2022-12-25T18:33:33.898Z,8.80
2022-12-25T18:36:05.096Z,8.81
2022-12-25T18:38:35.834Z,8.82
2022-12-25T18:41:09.383Z,8.83
2022-12-25T18:43:52.186Z,8.84
2022-12-25T18:46:26.585Z,8.85
2022-12-25T18:48:58.310Z,8.87
2022-12-25T18:51:34.970Z,8.88
2022-12-25T18:54:07.974Z,8.90
2022-12-25T18:56:38.666Z,8.92
2022-12-25T18:59:09.199Z,8.93
2022-12-25T19:01:39.908Z,8.96
2022-12-25T19:04:12.759Z,8.98
2022-12-25T19:06:43.462Z,8.99
2022-12-25T19:09:14.140Z,9.01
2022-12-25T19:11:46.716Z,9.04
2022-12-25T19:14:17.920Z,9.07
2022-12-25T19:16:48.676Z,9.08
2022-12-25T19:19:19.545Z,9.08
2022-12-25T19:21:53.959Z,9.10
2022-12-25T19:24:25.581Z,9.11
2022-12-25T19:26:56.181Z,9.11
2022-12-25T19:29:26.812Z,9.12
2022-12-25T19:31:57.986Z,9.12
2022-12-25T19:34:28.832Z,9.12
2022-12-25T19:36:59.492Z,9.13
2022-12-25T19:39:30.295Z,9.14
2022-12-25T19:42:01.042Z,9.15
2022-12-25T19:44:31.625Z,9.16
2022-12-25T19:47:02.679Z,9.16
2022-12-25T19:49:33.502Z,9.17
2022-12-25T19:52:04.424Z,9.19
2022-12-25T19:54:35.193Z,9.20
2022-12-25T19:57:05.997Z,9.21
2022-12-25T19:59:36.775Z,9.22
2022-12-25T20:02:11.024Z,9.24
2022-12-25T20:04:44.284Z,9.26
2022-12-25T20:07:15.177Z,9.27
2022-12-25T20:09:46.075Z,9.30
2022-12-25T20:12:16.709Z,9.33
2022-12-25T20:14:48.134Z,9.35
2022-12-25T20:17:19.079Z,9.38
2022-12-25T20:19:49.954Z,9.39
2022-12-25T20:22:20.639Z,9.41
2022-12-25T20:24:51.273Z,9.43
2022-12-25T20:27:21.880Z,9.46
2022-12-25T20:29:52.499Z,9.46
2022-12-25T20:32:23.365Z,9.48
2022-12-25T20:34:54.158Z,9.50
2022-12-25T20:37:25.066Z,9.51
2022-12-25T20:39:55.779Z,9.53
2022-12-25T20:42:26.662Z,9.54
2022-12-25T20:44:57.334Z,9.55
2022-12-25T20:47:28.003Z,9.56
2022-12-25T20:49:58.935Z,9.57
2022-12-25T20:52:30.122Z,9.58
2022-12-25T20:55:00.855Z,9.60
2022-12-25T20:57:31.684Z,9.60
2022-12-25T21:00:02.272Z,9.61
2022-12-25T21:02:36.412Z,9.62
2022-12-25T21:05:12.417Z,9.62
2022-12-25T21:07:43.066Z,9.64
2022-12-25T21:10:13.816Z,9.65
2022-12-25T21:12:44.455Z,9.66
2022-12-25T21:15:16.171Z,9.66
2022-12-25T21:17:46.867Z,9.66
2022-12-25T21:20:17.897Z,9.66
2022-12-25T21:22:48.608Z,9.65
2022-12-25T21:25:19.321Z,9.65
2022-12-25T21:27:49.905Z,9.65
2022-12-25T21:30:20.548Z,9.64
2022-12-25T21:33:08.768Z,9.62
2022-12-25T21:35:40.478Z,9.61
2022-12-25T21:38:11.372Z,9.60
2022-12-25T21:40:42.318Z,9.60
2022-12-25T21:43:15.133Z,9.59
2022-12-25T21:45:45.931Z,9.58
2022-12-25T21:48:16.543Z,9.58
2022-12-25T21:51:04.614Z,9.58
2022-12-25T21:53:35.536Z,9.57
2022-12-25T21:56:06.530Z,9.56
2022-12-25T21:58:37.434Z,9.56
2022-12-25T22:01:08.117Z,9.55
2022-12-25T22:03:39.250Z,9.55
2022-12-25T22:06:27.765Z,9.54
2022-12-25T22:08:58.471Z,9.54
2022-12-25T22:11:43.623Z,9.53
2022-12-25T22:14:52.778Z,9.53
2022-12-25T22:17:44.674Z,9.51
2022-12-25T22:20:17.772Z,9.51
2022-12-25T22:22:48.620Z,9.51
2022-12-25T22:25:20.457Z,9.51
2022-12-25T22:27:51.656Z,9.50
2022-12-25T22:30:25.388Z,9.49
2022-12-25T22:32:56.409Z,9.49
2022-12-25T22:35:27.616Z,9.49
2022-12-25T22:37:58.816Z,9.49
2022-12-25T22:40:29.602Z,9.49
2022-12-25T22:43:00.285Z,9.50
2022-12-25T22:45:30.986Z,9.50
2022-12-25T22:48:01.601Z,9.51
2022-12-25T22:50:32.425Z,9.51
2022-12-25T22:53:03.193Z,9.52
2022-12-25T22:55:33.995Z,9.52
2022-12-25T22:58:04.614Z,9.53
2022-12-25T23:00:39.765Z,9.53
2022-12-25T23:03:15.226Z,9.54
2022-12-25T23:05:46.255Z,9.54
2022-12-25T23:08:17.390Z,9.55
2022-12-25T23:10:48.328Z,9.56
2022-12-25T23:13:37.460Z,9.56
2022-12-25T23:16:13.743Z,9.58
2022-12-25T23:19:02.420Z,9.57
2022-12-25T23:21:51.034Z,9.58
2022-12-25T23:24:39.352Z,9.60
2022-12-25T23:27:10.037Z,9.61
2022-12-25T23:29:40.822Z,9.62
2022-12-25T23:32:15.347Z,9.62
2022-12-25T23:34:47.164Z,9.62
2022-12-25T23:37:17.785Z,9.63
2022-12-25T23:39:50.036Z,9.63
2022-12-25T23:42:20.878Z,9.65
2022-12-25T23:44:51.546Z,9.65
2022-12-25T23:47:22.414Z,9.65
2022-12-25T23:49:53.051Z,9.65
2022-12-25T23:52:24.454Z,9.67
2022-12-25T23:54:55.280Z,9.68
2022-12-25T23:57:25.854Z,9.68
2022-12-25T23:59:58.099Z,9.69
